^^
Saratoga-Weather Station Historical Data
Daily Summary for January 7, 2021 Units:  English    Metric   Both
Daily Weekly Monthly Yearly Custom
  High: Low: Average:
Temperature: 42.4 °F 37.4 °F 40.1 °F
Dew Point: 39.6 °F 35.4 °F 37.2 °F
Humidity: 94% 84% 90%
Wind Speed: 15mph 0mph 3.4mph
Wind Gust: 18mph - -
Wind- - South
Pressure: 29.9 in 29.4 in -
Precipitation: 0.16 in    
Historical Graphs
 
 
Tabular Data for January 7, 2021
Time Temperature Dew Point Pressure Wind Wind Speed Wind Gust Humidity Rainfall Rate (Hourly) solar
00:04 39.6 °F 37.9 °F 29.8 in West 4 mph 6 mph 94% 0.03 in 0 W/m2
00:09 39.6 °F 37.9 °F 29.8 in WNW 0.9 mph 10 mph 94% 0.03 in 0 W/m2
00:14 39.7 °F 38.1 °F 29.8 in WSW 2 mph 6 mph 94% 0.04 in 0 W/m2
00:19 39.7 °F 38.1 °F 29.8 in WNW 2.9 mph 6 mph 94% 0.04 in 0 W/m2
00:24 39.9 °F 38.3 °F 29.8 in West 2 mph 13 mph 94% 0.04 in 0 W/m2
00:29 40.1 °F 38.5 °F 29.8 in NW 2 mph 10 mph 94% 0.05 in 0 W/m2
00:34 40.3 °F 38.7 °F 29.8 in WSW 6.9 mph 13 mph 94% 0.05 in 0 W/m2
00:39 40.5 °F 38.8 °F 29.8 in WNW 4 mph 8 mph 94% 0.05 in 0 W/m2
00:44 40.5 °F 38.8 °F 29.8 in NW 8.9 mph 10 mph 94% 0.06 in 0 W/m2
00:49 40.6 °F 39 °F 29.8 in WNW 6 mph 13 mph 94% 0.06 in 0 W/m2
00:54 40.6 °F 39 °F 29.8 in WNW 6 mph 12 mph 94% 0.07 in 0 W/m2
00:59 40.6 °F 39 °F 29.8 in West 8.9 mph 13 mph 94% 0.06 in 0 W/m2
01:04 40.8 °F 39.2 °F 29.8 in West 13 mph 16 mph 94% 0.06 in 0 W/m2
01:09 40.6 °F 38.8 °F 29.8 in WSW 8.1 mph 10 mph 93% 0.07 in 0 W/m2
01:14 40.6 °F 38.8 °F 29.8 in West 2 mph 15 mph 93% 0.06 in 0 W/m2
01:19 40.5 °F 38.7 °F 29.8 in Calm   3 mph 93% 0.06 in 0 W/m2
01:24 40.5 °F 38.7 °F 29.8 in WNW 8.1 mph 9 mph 93% 0.06 in 0 W/m2
01:29 40.6 °F 38.8 °F 29.8 in WSW 0.9 mph 5 mph 93% 0.06 in 0 W/m2
01:34 40.6 °F 38.8 °F 29.8 in West 4 mph 17 mph 93% 0.06 in 0 W/m2
01:39 41 °F 39.2 °F 29.8 in WNW 10.1 mph 11 mph 93% 0.06 in 0 W/m2
01:44 41.2 °F 39.4 °F 29.8 in West 4 mph 17 mph 93% 0.04 in 0 W/m2
01:49 41.4 °F 39.6 °F 29.8 in WNW 15 mph 18 mph 93% 0.03 in 0 W/m2
01:54 41.4 °F 39.2 °F 29.8 in West 6.9 mph 14 mph 92% 0.02 in 0 W/m2
01:59 40.6 °F 37.9 °F 29.8 in WNW 10.1 mph 18 mph 90% 0.03 in 0 W/m2
02:04 40.3 °F 37.9 °F 29.8 in NNW 0.9 mph 7 mph 91% 0.03 in 0 W/m2
02:09 40.1 °F 37.9 °F 29.8 in West 2.9 mph 18 mph 92% 0.02 in 0 W/m2
02:14 40.3 °F 38.5 °F 29.8 in WNW 2.9 mph 8 mph 93% 0.03 in 0 W/m2
02:19 40.6 °F 38.8 °F 29.8 in WNW 2 mph 16 mph 93% 0.03 in 0 W/m2
02:24 40.6 °F 38.5 °F 29.8 in WNW 2.9 mph 11 mph 92% 0.03 in 0 W/m2
02:29 40.6 °F 38.5 °F 29.8 in WSW 4.9 mph 16 mph 92% 0.03 in 0 W/m2
02:34 40.5 °F 38.3 °F 29.8 in WNW 4.9 mph 13 mph 92% 0.03 in 0 W/m2
02:39 40.5 °F 38.1 °F 29.8 in NW 4.9 mph 11 mph 91% 0.03 in 0 W/m2
02:44 40.5 °F 38.1 °F 29.8 in West 6.9 mph 9 mph 91% 0.03 in 0 W/m2
02:49 40.3 °F 37.9 °F 29.8 in West 6.9 mph 10 mph 91% 0.03 in 0 W/m2
02:54 40.3 °F 37.9 °F 29.8 in West 8.1 mph 9 mph 91% 0.02 in 0 W/m2
02:59 40.3 °F 37.9 °F 29.8 in SW 8.9 mph 10 mph 91% 0.02 in 0 W/m2
03:04 40.1 °F 37.8 °F 29.8 in West 6.9 mph 7 mph 91% 0.01 in 0 W/m2
03:09 39.9 °F 37.6 °F 29.8 in WNW 2.9 mph 8 mph 91% 0.01 in 0 W/m2
03:14 39.9 °F 37.6 °F 29.8 in West 8.1 mph 9 mph 91% 0 in 0 W/m2
03:19 39.7 °F 37.4 °F 29.8 in WNW 4 mph 11 mph 91% 0 in 0 W/m2
03:24 39.7 °F 37.4 °F 29.8 in NW 11 mph 11 mph 91% 0 in 0 W/m2
03:29 39.6 °F 37.2 °F 29.8 in West 8.9 mph 13 mph 91% 0 in 0 W/m2
03:34 39.6 °F 36.9 °F 29.8 in West 6 mph 9 mph 90% 0 in 0 W/m2
03:40 39.6 °F 36.9 °F 29.8 in West 8.1 mph 10 mph 90% 0 in 0 W/m2
03:45 39.4 °F 36.7 °F 29.8 in WSW 8.1 mph 9 mph 90% 0 in 0 W/m2
03:50 39.4 °F 36.5 °F 29.8 in WNW 2.9 mph 7 mph 89% 0 in 0 W/m2
03:55 39 °F 36.1 °F 29.8 in West 2.9 mph 6 mph 89% 0 in 0 W/m2
04:00 39 °F 36.3 °F 29.8 in WSW 2.9 mph 7 mph 90% 0 in 0 W/m2
04:05 38.8 °F 36.1 °F 29.8 in WNW 2 mph 6 mph 90% 0 in 0 W/m2
04:10 38.8 °F 36.5 °F 29.9 in WNW 2.9 mph 8 mph 91% 0 in 0 W/m2
04:15 38.8 °F 36.5 °F 29.9 in WSW 6.9 mph 8 mph 91% 0 in 0 W/m2
04:20 38.8 °F 36.5 °F 29.8 in West 6 mph 12 mph 91% 0 in 0 W/m2
04:25 39 °F 36.7 °F 29.9 in West 2.9 mph 8 mph 91% 0 in 0 W/m2
04:30 39 °F 36.7 °F 29.8 in West 8.1 mph 12 mph 91% 0 in 0 W/m2
04:35 39.2 °F 36.5 °F 29.9 in WNW 8.1 mph 8 mph 90% 0 in 0 W/m2
04:40 39 °F 36.3 °F 29.9 in WSW 4.9 mph 9 mph 90% 0 in 0 W/m2
04:45 39 °F 36.3 °F 29.9 in West 11 mph 17 mph 90% 0 in 0 W/m2
04:50 39 °F 36.3 °F 29.9 in West 13 mph 13 mph 90% 0 in 0 W/m2
04:55 39 °F 36.3 °F 29.9 in WSW 2 mph 9 mph 90% 0 in 0 W/m2
05:00 39 °F 36.3 °F 29.9 in WSW 15 mph 15 mph 90% 0 in 0 W/m2
05:05 39 °F 36.3 °F 29.9 in SW 4.9 mph 13 mph 90% 0 in 0 W/m2
05:10 39.2 °F 36.5 °F 29.9 in West 15 mph 15 mph 90% 0 in 0 W/m2
05:15 39.4 °F 36.7 °F 29.9 in West 4 mph 10 mph 90% 0 in 0 W/m2
05:20 39.2 °F 36.3 °F 29.9 in WSW 2 mph 6 mph 89% 0 in 0 W/m2
05:25 39 °F 36.3 °F 29.9 in WNW 8.1 mph 10 mph 90% 0 in 0 W/m2
05:30 39.2 °F 36.5 °F 29.9 in WSW 4.9 mph 10 mph 90% 0 in 0 W/m2
05:35 39.2 °F 36.3 °F 29.9 in WNW 11 mph 11 mph 89% 0 in 0 W/m2
05:40 39.2 °F 36.3 °F 29.9 in West 4 mph 11 mph 89% 0 in 0 W/m2
05:45 39.2 °F 36.3 °F 29.9 in WSW 8.9 mph 11 mph 89% 0 in 0 W/m2
05:50 39 °F 36.1 °F 29.9 in West 8.9 mph 9 mph 89% 0 in 0 W/m2
05:55 39.2 °F 36.3 °F 29.9 in WSW 4 mph 7 mph 89% 0 in 0 W/m2
06:00 39 °F 36.1 °F 29.9 in West 6 mph 9 mph 89% 0 in 0 W/m2
06:05 39 °F 36.1 °F 29.9 in West 4 mph 7 mph 89% 0 in 0 W/m2
06:10 39.2 °F 36.3 °F 29.9 in West 8.9 mph 9 mph 89% 0 in 0 W/m2
06:15 39.2 °F 36.3 °F 29.9 in SSW 4 mph 9 mph 89% 0 in 0 W/m2
06:20 39 °F 36.1 °F 29.9 in WSW 2.9 mph 6 mph 89% 0 in 0 W/m2
06:25 39 °F 36.1 °F 29.9 in SW 2 mph 9 mph 89% 0 in 0 W/m2
06:30 39 °F 36.3 °F 29.9 in WSW 4 mph 4 mph 90% 0 in 0 W/m2
06:35 39 °F 36.3 °F 29.9 in West 2 mph 6 mph 90% 0 in 0 W/m2
06:40 38.8 °F 36.1 °F 29.9 in WSW 2 mph 5 mph 90% 0 in 0 W/m2
06:45 38.8 °F 36.1 °F 29.9 in West 4 mph 6 mph 90% 0 in 0 W/m2
06:50 38.8 °F 36.1 °F 29.9 in West 2.9 mph 3 mph 90% 0 in 0 W/m2
06:55 38.8 °F 36.1 °F 29.9 in NW 0.9 mph 3 mph 90% 0 in 0 W/m2
07:00 38.8 °F 36.5 °F 29.9 in West 2 mph 6 mph 91% 0 in 0 W/m2
07:05 38.7 °F 36.3 °F 29.9 in WSW 0.9 mph 2 mph 91% 0 in 0 W/m2
07:10 38.7 °F 36.3 °F 29.9 in WNW 2.9 mph 3 mph 91% 0 in 0 W/m2
07:15 38.7 °F 36.3 °F 29.9 in Calm   2 mph 91% 0 in 0 W/m2
07:20 38.7 °F 36.3 °F 29.9 in Calm     91% 0 in 0 W/m2
07:25 38.7 °F 36.3 °F 29.9 in Calm   2 mph 91% 0 in 0 W/m2
07:30 38.5 °F 36.1 °F 29.9 in ESE 2 mph 2 mph 91% 0 in 0 W/m2
07:35 38.5 °F 36.1 °F 29.9 in Calm     91% 0 in 0 W/m2
07:40 38.3 °F 36 °F 29.9 in Calm   4 mph 91% 0 in 0 W/m2
07:45 38.1 °F 36 °F 29.9 in Calm   2 mph 92% 0 in 0 W/m2
07:50 38.1 °F 36 °F 29.9 in South 0.9 mph 3 mph 92% 0 in 0 W/m2
07:55 38.1 °F 36 °F 29.9 in Calm     92% 0 in 0 W/m2
08:00 37.9 °F 35.8 °F 29.9 in NW 4 mph 7 mph 92% 0 in 0 W/m2
08:05 37.9 °F 35.8 °F 29.9 in Calm   2 mph 92% 0 in 0 W/m2
08:10 37.8 °F 35.6 °F 29.9 in NW 0.9 mph 7 mph 92% 0 in 0 W/m2
08:15 37.8 °F 35.6 °F 29.9 in WNW 2 mph 3 mph 92% 0 in 0 W/m2
08:20 37.8 °F 35.6 °F 29.9 in West 0.9 mph 2 mph 92% 0 in 0 W/m2
08:25 37.6 °F 35.4 °F 29.9 in ESE 0.9 mph 3 mph 92% 0 in 5 W/m2
08:30 37.6 °F 35.8 °F 29.9 in WSW 2.9 mph 3 mph 93% 0 in 5 W/m2
08:35 37.6 °F 35.8 °F 29.9 in WSW 0.9 mph 4 mph 93% 0 in 7 W/m2
08:40 37.6 °F 35.8 °F 29.9 in Calm   3 mph 93% 0 in 11 W/m2
08:45 37.4 °F 35.6 °F 29.9 in SSE 0.9 mph 5 mph 93% 0 in 9 W/m2
08:50 37.6 °F 35.8 °F 29.9 in West 6 mph 8 mph 93% 0 in 9 W/m2
08:56 37.6 °F 35.8 °F 29.9 in Calm   2 mph 93% 0 in 11 W/m2
09:01 37.6 °F 35.8 °F 29.9 in SW 0.9 mph 8 mph 93% 0 in 12 W/m2
09:06 37.8 °F 36 °F 29.9 in SW 0.9 mph 2 mph 93% 0 in 25 W/m2
09:11 37.8 °F 36 °F 29.9 in West 0.9 mph 3 mph 93% 0 in 26 W/m2
09:16 37.8 °F 36.1 °F 29.9 in Calm   2 mph 94% 0 in 26 W/m2
09:21 37.9 °F 36.3 °F 29.9 in Calm   3 mph 94% 0 in 39 W/m2
09:26 37.9 °F 36.3 °F 29.9 in Calm   4 mph 94% 0 in 21 W/m2
09:31 38.1 °F 36.5 °F 29.9 in Calm   4 mph 94% 0 in 21 W/m2
09:36 38.1 °F 36.3 °F 29.9 in Calm   1 mph 93% 0 in 21 W/m2
09:41 38.1 °F 36.3 °F 29.9 in North 0.9 mph 4 mph 93% 0 in 39 W/m2
09:46 38.1 °F 36.3 °F 29.9 in Calm   1 mph 93% 0 in 35 W/m2
09:51 38.1 °F 36.3 °F 29.9 in Calm   2 mph 93% 0 in 37 W/m2
09:56 38.1 °F 36.3 °F 29.9 in Calm     93% 0 in 53 W/m2
10:01 38.1 °F 36.3 °F 29.9 in Calm     93% 0 in 44 W/m2
10:06 38.5 °F 36.9 °F 29.9 in Calm   6 mph 94% 0 in 54 W/m2
10:11 38.5 °F 36.9 °F 29.9 in Calm   2 mph 94% 0 in 33 W/m2
10:16 38.7 °F 36.9 °F 29.9 in Calm   3 mph 93% 0 in 35 W/m2
10:21 38.8 °F 37 °F 29.9 in NNE 0.9 mph 4 mph 93% 0 in 44 W/m2
10:26 38.8 °F 37 °F 29.9 in East 2 mph 6 mph 93% 0 in 44 W/m2
10:31 38.8 °F 37 °F 29.9 in North 0.9 mph 2 mph 93% 0 in 60 W/m2
10:36 39 °F 37.2 °F 29.9 in NE 2.9 mph 4 mph 93% 0 in 54 W/m2
10:41 39 °F 37.2 °F 29.9 in North 2 mph 3 mph 93% 0 in 39 W/m2
10:46 39.2 °F 37 °F 29.9 in NW 0.9 mph 2 mph 92% 0 in 42 W/m2
10:51 39.4 °F 37.2 °F 29.9 in WNW 2.9 mph 7 mph 92% 0 in 56 W/m2
10:56 39.4 °F 37.2 °F 29.9 in West 6.9 mph 8 mph 92% 0 in 63 W/m2
11:01 39.4 °F 37.2 °F 29.9 in WNW 2 mph 4 mph 92% 0 in 53 W/m2
11:06 39.4 °F 37.2 °F 29.9 in Calm   8 mph 92% 0 in 62 W/m2
11:11 39.6 °F 37.4 °F 29.9 in North 0.9 mph 4 mph 92% 0 in 81 W/m2
11:16 39.6 °F 37.4 °F 29.9 in Calm   3 mph 92% 0 in 47 W/m2
11:21 39.7 °F 37.6 °F 29.9 in Calm   4 mph 92% 0 in 63 W/m2
11:26 39.7 °F 37.6 °F 29.9 in NNW 2.9 mph 3 mph 92% 0 in 105 W/m2
11:31 39.9 °F 37.8 °F 29.9 in East 2 mph 3 mph 92% 0 in 95 W/m2
11:36 39.9 °F 37.8 °F 29.9 in NNE 0.9 mph 4 mph 92% 0 in 98 W/m2
11:41 40.3 °F 37.9 °F 29.9 in NNW 2 mph 3 mph 91% 0 in 88 W/m2
11:46 40.3 °F 37.9 °F 29.9 in Calm   4 mph 91% 0 in 58 W/m2
11:51 40.3 °F 37.9 °F 29.9 in NNW 0.9 mph 2 mph 91% 0 in 53 W/m2
11:56 40.5 °F 38.1 °F 29.9 in NNE 0.9 mph 1 mph 91% 0 in 102 W/m2
12:01 40.6 °F 38.3 °F 29.9 in NNW 2 mph 2 mph 91% 0 in 104 W/m2
12:06 40.6 °F 38.3 °F 29.9 in SE 0.9 mph 4 mph 91% 0 in 83 W/m2
12:11 40.6 °F 37.9 °F 29.9 in North 0.9 mph 2 mph 90% 0 in 111 W/m2
12:16 40.8 °F 37.8 °F 29.9 in NE 0.9 mph 2 mph 89% 0 in 105 W/m2
12:21 40.8 °F 37.6 °F 29.9 in North 0.9 mph 5 mph 88% 0 in 102 W/m2
12:26 40.8 °F 37.6 °F 29.9 in NNW 2.9 mph 5 mph 88% 0 in 111 W/m2
12:31 41 °F 37.8 °F 29.9 in Calm   3 mph 88% 0 in 79 W/m2
12:36 41.2 °F 37.6 °F 29.9 in NE 2 mph 5 mph 87% 0 in 86 W/m2
12:41 41.2 °F 37.6 °F 29.9 in North 0.9 mph 2 mph 87% 0 in 84 W/m2
12:46 41.4 °F 37.8 °F 29.9 in North 3 mph 3 mph 87% 0 in 67 W/m2
12:51 41.4 °F 37.6 °F 29.9 in NNW 4 mph 6 mph 86% 0 in 77 W/m2
12:56 41.4 °F 37.6 °F 29.9 in West 0.9 mph 5 mph 86% 0 in 79 W/m2
13:01 41.4 °F 37.6 °F 29.9 in NNW 2 mph 6 mph 86% 0 in 91 W/m2
13:06 41.4 °F 37.2 °F 29.8 in NE 2 mph 2 mph 85% 0 in 120 W/m2
13:11 41.5 °F 37.4 °F 29.8 in ENE 2 mph 4 mph 85% 0 in 116 W/m2
13:16 41.5 °F 37.4 °F 29.8 in NE 2.9 mph 3 mph 85% 0 in 105 W/m2
13:21 41.7 °F 37.2 °F 29.8 in WNW 2 mph 4 mph 84% 0 in 127 W/m2
13:27 41.7 °F 37.6 °F 29.8 in NE 0.9 mph 3 mph 85% 0 in 127 W/m2
13:32 42.1 °F 37.9 °F 29.8 in Calm   2 mph 85% 0 in 100 W/m2
13:37 42.1 °F 37.9 °F 29.8 in East 4 mph 4 mph 85% 0 in 104 W/m2
13:42 42.3 °F 37.8 °F 29.8 in NE 0.9 mph 2 mph 84% 0 in 81 W/m2
13:47 42.3 °F 38.1 °F 29.8 in Calm     85% 0 in 97 W/m2
13:52 42.4 °F 38.3 °F 29.8 in ESE 0.9 mph 4 mph 85% 0 in 81 W/m2
13:57 42.4 °F 38.3 °F 29.8 in East 4 mph 4 mph 85% 0 in 62 W/m2
14:02 42.3 °F 38.1 °F 29.8 in Calm   4 mph 85% 0 in 70 W/m2
14:07 42.4 °F 38.3 °F 29.8 in SE 2.9 mph 6 mph 85% 0 in 98 W/m2
14:12 42.4 °F 38.5 °F 29.8 in Calm   2 mph 86% 0 in 76 W/m2
14:17 42.4 °F 38.5 °F 29.8 in ESE 2 mph 6 mph 86% 0 in 88 W/m2
14:22 42.4 °F 38.5 °F 29.8 in ESE 6 mph 7 mph 86% 0 in 76 W/m2
14:27 42.4 °F 38.8 °F 29.8 in East 2 mph 8 mph 87% 0 in 86 W/m2
14:32 42.4 °F 38.8 °F 29.8 in ENE 2.9 mph 6 mph 87% 0 in 84 W/m2
14:37 42.4 °F 38.8 °F 29.8 in East 4 mph 9 mph 87% 0 in 72 W/m2
14:42 42.4 °F 39.2 °F 29.8 in ENE 2.9 mph 4 mph 88% 0 in 54 W/m2
14:47 42.3 °F 39 °F 29.8 in East 0.9 mph 6 mph 88% 0 in 46 W/m2
14:52 42.3 °F 39 °F 29.8 in ESE 2.9 mph 8 mph 88% 0 in 47 W/m2
14:57 42.3 °F 39 °F 29.8 in ESE 2 mph 5 mph 88% 0 in 62 W/m2
15:02 42.3 °F 39 °F 29.8 in East 2.9 mph 8 mph 88% 0 in 54 W/m2
15:07 42.3 °F 39 °F 29.8 in ENE 2.9 mph 8 mph 88% 0 in 53 W/m2
15:12 42.3 °F 38.7 °F 29.8 in ENE 4 mph 6 mph 87% 0 in 49 W/m2
15:17 42.1 °F 38.5 °F 29.8 in ESE 10.1 mph 10 mph 87% 0 in 42 W/m2
15:22 42.1 °F 38.1 °F 29.8 in ESE 8.1 mph 13 mph 86% 0 in 42 W/m2
15:27 42.1 °F 38.1 °F 29.8 in ESE 2.9 mph 6 mph 86% 0 in 35 W/m2
15:32 42.1 °F 38.1 °F 29.8 in ENE 4.9 mph 8 mph 86% 0 in 32 W/m2
15:37 42.1 °F 38.1 °F 29.8 in ESE 4 mph 15 mph 86% 0 in 23 W/m2
15:42 41.9 °F 37.8 °F 29.8 in ESE 8.1 mph 11 mph 85% 0 in 26 W/m2
15:47 41.9 °F 37.9 °F 29.7 in ESE 4 mph 15 mph 86% 0 in 26 W/m2
15:52 41.9 °F 37.9 °F 29.7 in East 2.9 mph 7 mph 86% 0 in 30 W/m2
15:57 41.7 °F 37.6 °F 29.7 in East 6.9 mph 11 mph 85% 0 in 30 W/m2
16:02 41.7 °F 37.6 °F 29.7 in ENE 4 mph 11 mph 85% 0 in 21 W/m2
16:07 41.5 °F 37.4 °F 29.7 in ESE 4 mph 9 mph 85% 0 in 16 W/m2
16:12 41.4 °F 37.2 °F 29.7 in ESE 8.1 mph 11 mph 85% 0 in 14 W/m2
16:17 41.4 °F 37.2 °F 29.7 in ESE 6.9 mph 10 mph 85% 0 in 11 W/m2
16:22 41.2 °F 37 °F 29.7 in East 0.9 mph 11 mph 85% 0 in 7 W/m2
16:27 41.2 °F 37 °F 29.7 in NE 2 mph 6 mph 85% 0 in 5 W/m2
16:32 41 °F 36.9 °F 29.7 in East 2 mph 7 mph 85% 0 in 0 W/m2
16:37 40.8 °F 36.7 °F 29.7 in SSE 2 mph 5 mph 85% 0 in 0 W/m2
16:42 40.6 °F 36.9 °F 29.7 in East 2.9 mph 4 mph 86% 0 in 0 W/m2
16:47 40.5 °F 36.7 °F 29.7 in ENE 2 mph 4 mph 86% 0 in 0 W/m2
16:52 40.5 °F 36.7 °F 29.7 in ENE 0.9 mph 4 mph 86% 0 in 0 W/m2
16:57 40.5 °F 36.7 °F 29.7 in ENE 2 mph 3 mph 86% 0 in 0 W/m2
17:02 40.5 °F 36.7 °F 29.7 in NE 0.9 mph 1 mph 86% 0 in 0 W/m2
17:07 40.5 °F 36.9 °F 29.7 in ENE 4 mph 4 mph 87% 0 in 0 W/m2
17:12 40.5 °F 36.9 °F 29.7 in East 2.9 mph 8 mph 87% 0 in 0 W/m2
17:17 40.5 °F 36.9 °F 29.7 in ESE 2 mph 4 mph 87% 0 in 0 W/m2
17:22 40.6 °F 37 °F 29.7 in East 2 mph 9 mph 87% 0 in 0 W/m2
17:27 40.6 °F 37 °F 29.7 in East 0.9 mph 6 mph 87% 0 in 0 W/m2
17:32 40.6 °F 37 °F 29.7 in ESE 2.9 mph 9 mph 87% 0 in 0 W/m2
17:37 40.8 °F 37.2 °F 29.7 in East 4 mph 7 mph 87% 0 in 0 W/m2
17:42 40.8 °F 37.2 °F 29.7 in ENE 2 mph 9 mph 87% 0 in 0 W/m2
17:47 40.8 °F 37.2 °F 29.7 in East 4 mph 7 mph 87% 0 in 0 W/m2
17:52 40.8 °F 37.6 °F 29.7 in East 2 mph 3 mph 88% 0 in 0 W/m2
17:57 40.8 °F 37.6 °F 29.7 in SE 2.9 mph 6 mph 88% 0 in 0 W/m2
18:02 40.8 °F 37.6 °F 29.7 in ENE 2 mph 3 mph 88% 0 in 0 W/m2
18:07 40.6 °F 37.4 °F 29.7 in ENE 0.9 mph 4 mph 88% 0 in 0 W/m2
18:12 40.8 °F 37.8 °F 29.7 in East 2 mph 3 mph 89% 0 in 0 W/m2
18:17 40.6 °F 37.6 °F 29.7 in East 2 mph 6 mph 89% 0 in 0 W/m2
18:22 40.6 °F 37.6 °F 29.7 in ESE 2.9 mph 8 mph 89% 0 in 0 W/m2
18:27 40.5 °F 37.4 °F 29.7 in Calm   6 mph 89% 0 in 0 W/m2
18:32 40.5 °F 37.4 °F 29.6 in East 4.9 mph 7 mph 89% 0 in 0 W/m2
18:37 40.5 °F 37.4 °F 29.6 in ENE 0.9 mph 7 mph 89% 0 in 0 W/m2
18:42 40.5 °F 37.8 °F 29.6 in ENE 2.9 mph 4 mph 90% 0 in 0 W/m2
18:47 40.5 °F 37.8 °F 29.6 in ESE 2.9 mph 8 mph 90% 0 in 0 W/m2
18:52 40.5 °F 37.8 °F 29.6 in ENE 0.9 mph 8 mph 90% 0 in 0 W/m2
18:57 40.3 °F 37.6 °F 29.6 in East 4 mph 4 mph 90% 0 in 0 W/m2
19:02 40.3 °F 37.6 °F 29.6 in East 6 mph 9 mph 90% 0 in 0 W/m2
19:07 40.3 °F 37.2 °F 29.6 in ENE 4 mph 8 mph 89% 0 in 0 W/m2
19:12 40.3 °F 37.2 °F 29.6 in East 4 mph 9 mph 89% 0 in 0 W/m2
19:17 40.3 °F 37.2 °F 29.6 in SE 2 mph 9 mph 89% 0 in 0 W/m2
19:22 40.3 °F 37 °F 29.6 in ENE 2 mph 7 mph 88% 0 in 0 W/m2
19:27 40.3 °F 37 °F 29.6 in East 8.1 mph 9 mph 88% 0 in 0 W/m2
19:32 40.3 °F 37 °F 29.6 in ESE 0.9 mph 6 mph 88% 0 in 0 W/m2
19:37 40.3 °F 37 °F 29.6 in East 4 mph 9 mph 88% 0 in 0 W/m2
19:42 40.3 °F 37 °F 29.6 in ENE 2 mph 3 mph 88% 0 in 0 W/m2
19:47 40.3 °F 37 °F 29.6 in SE 2 mph 5 mph 88% 0 in 0 W/m2
19:52 40.3 °F 37 °F 29.6 in East 6.9 mph 7 mph 88% 0 in 0 W/m2
19:57 40.3 °F 37 °F 29.6 in SE 0.9 mph 3 mph 88% 0 in 0 W/m2
20:02 40.3 °F 36.7 °F 29.6 in NE 2.9 mph 11 mph 87% 0 in 0 W/m2
20:07 40.5 °F 36.9 °F 29.6 in ESE 2.9 mph 5 mph 87% 0 in 0 W/m2
20:12 40.5 °F 36.7 °F 29.6 in East 2 mph 11 mph 86% 0 in 0 W/m2
20:17 40.6 °F 36.9 °F 29.6 in East 2.9 mph 5 mph 86% 0 in 0 W/m2
20:22 40.6 °F 36.5 °F 29.6 in ESE 2.9 mph 8 mph 85% 0 in 0 W/m2
20:27 40.6 °F 36.5 °F 29.6 in ESE 6.9 mph 8 mph 85% 0 in 0 W/m2
20:32 40.6 °F 36.5 °F 29.6 in ENE 4.9 mph 8 mph 85% 0 in 0 W/m2
20:37 40.6 °F 36.1 °F 29.6 in ESE 4.9 mph 9 mph 84% 0 in 0 W/m2
20:42 40.6 °F 36.1 °F 29.5 in ESE 6 mph 7 mph 84% 0 in 0 W/m2
20:47 40.6 °F 36.1 °F 29.5 in SE 6.9 mph 10 mph 84% 0 in 0 W/m2
20:52 40.6 °F 36.1 °F 29.5 in ENE 2.9 mph 8 mph 84% 0 in 0 W/m2
20:57 40.6 °F 36.1 °F 29.5 in ENE 2.9 mph 6 mph 84% 0 in 0 W/m2
21:02 40.6 °F 36.1 °F 29.5 in East 2 mph 4 mph 84% 0 in 0 W/m2
21:07 40.6 °F 36.1 °F 29.5 in ESE 8.1 mph 8 mph 84% 0 in 0 W/m2
21:12 40.5 °F 36.3 °F 29.5 in East 2.9 mph 3 mph 85% 0 in 0 W/m2
21:17 40.5 °F 36.3 °F 29.5 in ENE 2.9 mph 5 mph 85% 0 in 0 W/m2
21:22 40.3 °F 36.1 °F 29.5 in NE 2 mph 9 mph 85% 0 in 0 W/m2
21:28 40.3 °F 36.5 °F 29.5 in ENE 0.9 mph 2 mph 86% 0 in 0 W/m2
21:33 40.3 °F 36.5 °F 29.5 in East 0.9 mph 9 mph 86% 0 in 0 W/m2
21:38 40.3 °F 36.5 °F 29.5 in NE 2 mph 6 mph 86% 0 in 0 W/m2
21:43 40.1 °F 36.3 °F 29.5 in ENE 2 mph 4 mph 86% 0 in 0 W/m2
21:48 40.1 °F 36.3 °F 29.5 in East 4 mph 4 mph 86% 0 in 0 W/m2
21:53 40.3 °F 36.5 °F 29.5 in East 2 mph 7 mph 86% 0 in 0 W/m2
21:58 40.1 °F 36.5 °F 29.5 in East 4.9 mph 5 mph 87% 0 in 0 W/m2
22:03 39.9 °F 36.3 °F 29.5 in SE 2 mph 7 mph 87% 0.01 in 0 W/m2
22:08 39.9 °F 36.7 °F 29.5 in ENE 0.9 mph 5 mph 88% 0.01 in 0 W/m2
22:13 39.7 °F 36.5 °F 29.5 in East 4.9 mph 7 mph 88% 0.01 in 0 W/m2
22:18 39.7 °F 36.7 °F 29.5 in ESE 2.9 mph 7 mph 89% 0.01 in 0 W/m2
22:23 39.6 °F 36.5 °F 29.5 in ENE 6 mph 10 mph 89% 0.01 in 0 W/m2
22:28 39.6 °F 36.9 °F 29.5 in ESE 4 mph 7 mph 90% 0.01 in 0 W/m2
22:33 39.4 °F 36.7 °F 29.5 in East 2 mph 6 mph 90% 0.02 in 0 W/m2
22:38 39.4 °F 36.7 °F 29.5 in Calm   7 mph 90% 0.02 in 0 W/m2
22:43 39.4 °F 36.7 °F 29.5 in ENE 2.9 mph 5 mph 90% 0.02 in 0 W/m2
22:48 39.4 °F 37 °F 29.5 in ESE 0.9 mph 4 mph 91% 0.02 in 0 W/m2
22:53 39.4 °F 37 °F 29.4 in ENE 4 mph 6 mph 91% 0.02 in 0 W/m2
22:58 39.6 °F 36.9 °F 29.4 in East 8.9 mph 9 mph 90% 0.02 in 0 W/m2
23:03 39.7 °F 37 °F 29.4 in East 4 mph 9 mph 90% 0.01 in 0 W/m2
23:08 39.7 °F 37 °F 29.4 in NE 2.9 mph 7 mph 90% 0.01 in 0 W/m2
23:13 39.9 °F 37.6 °F 29.4 in East 11 mph 11 mph 91% 0.01 in 0 W/m2
23:18 39.9 °F 37.6 °F 29.4 in ESE 2.9 mph 9 mph 91% 0.02 in 0 W/m2
23:23 39.7 °F 37.6 °F 29.4 in ESE 2.9 mph 9 mph 92% 0.02 in 0 W/m2
23:28 39.7 °F 37.6 °F 29.4 in ESE 2 mph 8 mph 92% 0.03 in 0 W/m2
23:33 39.7 °F 37.6 °F 29.4 in ESE 4 mph 7 mph 92% 0.02 in 0 W/m2
23:38 39.6 °F 37.8 °F 29.4 in ENE 2.9 mph 4 mph 93% 0.02 in 0 W/m2
23:43 39.7 °F 37.9 °F 29.4 in ESE 0.9 mph 5 mph 93% 0.02 in 0 W/m2
23:48 39.7 °F 37.9 °F 29.4 in ENE 2.9 mph 6 mph 93% 0.02 in 0 W/m2
23:53 39.7 °F 38.1 °F 29.4 in ENE 4 mph 4 mph 94% 0.02 in 0 W/m2
23:58 39.9 °F 38.3 °F 29.4 in East 4.9 mph 6 mph 94% 0.03 in 0 W/m2
Juneau County Weather
Compliments of Weather Underground - 4 mb